Time;durP1;ratioP1;P1;durP2;ratioP2;P2;SDS_P1;SDS_P2;PMS_P1;PMS_P2;Temp;Humidity;BMP_temperature;BMP_pressure;BME280_temperature;BME280_humidity;BME280_pressure;Samples;Min_cycle;Max_cycle;Signal;HPM_P1;HPM_P2
2022/03/28 00:00:11;;;;;;;31.90;8.90;;;11.90;62.40;;;;;;5051962;28;20282;-93
2022/03/28 00:02:40;;;;;;;41.53;11.20;;;11.90;62.70;;;;;;5051136;28;20246;-92
2022/03/28 00:05:10;;;;;;;32.83;9.53;;;11.90;62.60;;;;;;5045840;28;20226;-92
2022/03/28 00:07:37;;;;;;;27.67;8.83;;;11.80;62.40;;;;;;5047646;28;20299;-94
2022/03/28 00:10:06;;;;;;;18.73;7.23;;;11.80;62.20;;;;;;5054890;28;20598;-92
2022/03/28 00:12:38;;;;;;;24.90;8.83;;;11.80;62.00;;;;;;5052640;28;20264;-92
2022/03/28 00:15:07;;;;;;;26.90;8.50;;;11.80;62.20;;;;;;5049751;28;20308;-92
2022/03/28 00:17:36;;;;;;;37.37;10.90;;;11.80;62.30;;;;;;5055775;28;20204;-93
2022/03/28 00:20:04;;;;;;;27.20;8.23;;;11.70;62.20;;;;;;5050331;28;20249;-92
2022/03/28 00:22:32;;;;;;;20.70;7.10;;;11.70;62.30;;;;;;5054397;28;20204;-93
2022/03/28 00:25:01;;;;;;;32.13;9.03;;;11.70;62.80;;;;;;5047385;28;20232;-92
2022/03/28 00:27:32;;;;;;;16.50;6.87;;;11.60;62.50;;;;;;5057531;28;20208;-92
2022/03/28 00:29:59;;;;;;;15.63;7.00;;;11.60;62.80;;;;;;5059553;28;20216;-95
2022/03/28 00:32:26;;;;;;;28.73;8.53;;;11.50;62.90;;;;;;5056808;28;20674;-94
2022/03/28 00:34:57;;;;;;;31.13;9.63;;;11.50;62.60;;;;;;5053725;28;20235;-93
2022/03/28 00:37:24;;;;;;;24.10;8.40;;;11.50;62.10;;;;;;5051038;28;20199;-93
2022/03/28 00:39:53;;;;;;;20.93;7.77;;;11.50;62.10;;;;;;5058233;28;20201;-96
2022/03/28 00:42:24;;;;;;;19.77;7.33;;;11.40;62.40;;;;;;5059085;28;20227;-94
2022/03/28 00:44:53;;;;;;;18.93;7.47;;;11.40;62.90;;;;;;5058524;28;20204;-94
2022/03/28 00:47:21;;;;;;;21.03;6.67;;;11.40;62.90;;;;;;5057741;28;20662;-96
2022/03/28 00:49:48;;;;;;;23.90;8.07;;;11.30;62.90;;;;;;5056542;28;20214;-93
2022/03/28 00:52:16;;;;;;;31.40;10.03;;;11.30;62.90;;;;;;5056863;28;20231;-92
2022/03/28 00:54:44;;;;;;;18.50;7.43;;;11.30;63.40;;;;;;5057366;28;20274;-93
2022/03/28 00:57:13;;;;;;;25.50;8.47;;;11.30;63.70;;;;;;5055007;28;20212;-92
2022/03/28 00:59:43;;;;;;;22.73;7.67;;;11.20;63.70;;;;;;5054945;28;20584;-92
2022/03/28 01:02:12;;;;;;;20.43;8.07;;;11.20;63.50;;;;;;5060230;28;20202;-93
2022/03/28 01:04:39;;;;;;;21.20;7.80;;;11.20;63.60;;;;;;5056116;28;20232;-94
2022/03/28 01:07:08;;;;;;;17.80;7.40;;;11.10;63.60;;;;;;5057545;28;20728;-94
2022/03/28 01:09:41;;;;;;;21.87;7.67;;;11.10;63.60;;;;;;5049205;28;20203;-91
2022/03/28 01:12:10;;;;;;;23.07;8.63;;;11.10;63.70;;;;;;5053437;28;20223;-92
2022/03/28 01:14:42;;;;;;;21.13;7.80;;;11.00;63.40;;;;;;5053680;28;20321;-92
2022/03/28 01:19:55;;;;;;;26.27;8.63;;;11.00;62.70;;;;;;5055492;28;20227;-91
2022/03/28 01:22:23;;;;;;;22.03;8.37;;;10.90;62.50;;;;;;5052871;28;20208;-92
2022/03/28 01:24:51;;;;;;;20.10;8.13;;;10.90;63.20;;;;;;5052954;28;20568;-96
2022/03/28 01:27:23;;;;;;;23.30;8.60;;;10.90;62.70;;;;;;5057322;28;20204;-93
2022/03/28 01:29:51;;;;;;;27.00;8.80;;;10.90;62.30;;;;;;5055300;28;20204;-94
2022/03/28 01:32:18;;;;;;;18.53;7.63;;;10.90;62.40;;;;;;5055917;28;20217;-94
2022/03/28 01:34:47;;;;;;;21.37;8.13;;;10.90;62.40;;;;;;5044990;28;20215;-93
2022/03/28 01:37:17;;;;;;;19.33;7.47;;;10.80;62.40;;;;;;5054618;28;20200;-94
2022/03/28 01:39:46;;;;;;;18.87;7.47;;;10.80;62.60;;;;;;5054710;28;20547;-94
2022/03/28 01:42:13;;;;;;;21.87;8.07;;;10.80;62.70;;;;;;5056713;28;20232;-93
2022/03/28 01:44:41;;;;;;;17.90;7.50;;;10.80;62.50;;;;;;5037095;28;20268;-92
2022/03/28 01:47:11;;;;;;;26.47;8.77;;;10.80;62.20;;;;;;5052090;28;20229;-93
2022/03/28 01:49:38;;;;;;;22.67;8.93;;;10.80;62.40;;;;;;5051662;28;20983;-92
2022/03/28 01:52:06;;;;;;;22.37;8.60;;;10.70;62.00;;;;;;5036293;28;20216;-92
2022/03/28 01:54:34;;;;;;;22.60;8.43;;;10.70;61.70;;;;;;5055800;28;20247;-91
2022/03/28 01:57:09;;;;;;;32.40;10.40;;;10.70;62.10;;;;;;5066214;28;21055;-92
2022/03/28 01:59:36;;;;;;;20.50;7.47;;;10.70;62.40;;;;;;5069985;28;20242;-93
2022/03/28 02:02:03;;;;;;;18.23;7.87;;;10.70;62.10;;;;;;5069530;28;20214;-90
2022/03/28 02:04:32;;;;;;;30.30;10.07;;;10.60;62.10;;;;;;5056611;28;20265;-91
2022/03/28 02:07:01;;;;;;;20.10;8.07;;;10.60;62.00;;;;;;5049921;28;20213;-91
2022/03/28 02:09:32;;;;;;;17.67;6.90;;;10.60;62.10;;;;;;5055998;28;20225;-96
2022/03/28 02:11:59;;;;;;;24.37;8.53;;;10.60;61.70;;;;;;5057005;28;20208;-96
2022/03/28 02:14:28;;;;;;;24.30;7.93;;;10.60;62.00;;;;;;5054051;28;20628;-92
2022/03/28 02:16:55;;;;;;;17.63;7.90;;;10.50;63.10;;;;;;5053401;28;20197;-95
2022/03/28 02:19:22;;;;;;;22.13;8.60;;;10.50;62.40;;;;;;5054252;28;20230;-92
2022/03/28 02:21:49;;;;;;;17.13;6.70;;;10.50;62.10;;;;;;5054043;28;20562;-92
2022/03/28 02:24:17;;;;;;;20.00;7.30;;;10.50;62.00;;;;;;5052870;28;20264;-92
2022/03/28 02:26:45;;;;;;;17.83;7.23;;;10.40;62.30;;;;;;5054556;28;20205;-92
2022/03/28 02:29:12;;;;;;;22.90;8.27;;;10.40;62.30;;;;;;5055287;28;20261;-92
2022/03/28 02:31:41;;;;;;;16.57;7.50;;;10.30;62.00;;;;;;5054146;28;20254;-92
2022/03/28 02:34:12;;;;;;;18.03;7.43;;;10.30;62.40;;;;;;5052731;28;20325;-92
2022/03/28 02:36:39;;;;;;;21.53;7.70;;;10.30;62.80;;;;;;5049858;28;20735;-90
2022/03/28 02:39:07;;;;;;;25.53;7.33;;;10.20;62.40;;;;;;5036038;28;20200;-91
2022/03/28 02:41:34;;;;;;;19.27;7.03;;;10.20;62.60;;;;;;5054231;28;20239;-91
2022/03/28 02:44:02;;;;;;;19.67;7.37;;;10.20;62.60;;;;;;5048398;28;20198;-92
2022/03/28 02:46:30;;;;;;;18.57;7.33;;;10.20;62.70;;;;;;5053833;28;20199;-92
2022/03/28 02:48:59;;;;;;;17.60;7.60;;;10.10;62.80;;;;;;5055628;28;20227;-92
2022/03/28 02:51:27;;;;;;;16.43;6.83;;;10.10;63.00;;;;;;5050045;28;20230;-93
2022/03/28 02:53:56;;;;;;;19.83;7.97;;;10.00;63.10;;;;;;5056817;28;20961;-90
2022/03/28 02:56:35;;;;;;;22.13;8.07;;;10.00;62.50;;;;;;5054962;28;20196;-92
2022/03/28 02:59:02;;;;;;;25.10;9.23;;;10.00;62.30;;;;;;5055916;28;20554;-92
2022/03/28 03:01:30;;;;;;;27.00;10.17;;;9.90;63.50;;;;;;5057720;28;20212;-91
2022/03/28 03:03:59;;;;;;;22.73;10.07;;;9.90;63.40;;;;;;5055380;28;20273;-92
2022/03/28 03:06:26;;;;;;;24.20;9.67;;;9.90;63.80;;;;;;5056756;28;20714;-94
2022/03/28 03:08:55;;;;;;;20.47;8.70;;;9.90;64.20;;;;;;5040518;28;20666;-92
2022/03/28 03:11:23;;;;;;;24.23;9.23;;;9.80;64.30;;;;;;5043578;28;20212;-92
2022/03/28 03:13:53;;;;;;;19.17;8.57;;;9.80;64.20;;;;;;5057849;28;20299;-92
2022/03/28 03:16:20;;;;;;;20.93;7.93;;;9.80;63.60;;;;;;5039098;28;20202;-92
2022/03/28 03:18:50;;;;;;;24.30;9.30;;;9.80;63.60;;;;;;5055575;28;20216;-92
2022/03/28 03:21:19;;;;;;;18.00;8.30;;;9.80;64.30;;;;;;5055612;28;20203;-92
2022/03/28 03:23:48;;;;;;;23.93;9.27;;;9.70;64.40;;;;;;5046492;28;20216;-92
2022/03/28 03:26:15;;;;;;;19.60;7.73;;;9.70;64.80;;;;;;5058617;28;20228;-93
2022/03/28 03:28:43;;;;;;;26.37;9.60;;;9.70;64.10;;;;;;5059072;28;20228;-94
2022/03/28 03:31:14;;;;;;;24.13;7.97;;;9.60;64.00;;;;;;5056078;28;20205;-93
2022/03/28 03:33:43;;;;;;;17.13;6.83;;;9.70;64.50;;;;;;5056705;28;20204;-92
2022/03/28 03:36:10;;;;;;;30.30;8.77;;;9.60;64.00;;;;;;5055556;28;20232;-91
2022/03/28 03:38:39;;;;;;;21.23;7.30;;;9.60;64.00;;;;;;5062457;28;20453;-92
2022/03/28 03:41:07;;;;;;;14.23;6.87;;;9.60;64.60;;;;;;5059602;28;20212;-92
2022/03/28 03:43:35;;;;;;;22.33;7.67;;;9.60;64.90;;;;;;5057565;28;20280;-92
2022/03/28 03:46:04;;;;;;;14.47;6.97;;;9.50;65.00;;;;;;5059712;28;20219;-95
2022/03/28 03:48:32;;;;;;;16.73;7.27;;;9.50;64.90;;;;;;5057609;28;20201;-93
2022/03/28 03:51:01;;;;;;;18.43;7.57;;;9.50;65.10;;;;;;5056881;28;20230;-92
2022/03/28 03:53:36;;;;;;;13.57;6.47;;;9.50;64.50;;;;;;5060494;28;20242;-93
2022/03/28 03:56:10;;;;;;;20.23;7.53;;;9.50;64.30;;;;;;5056064;28;20337;-95
2022/03/28 03:58:37;;;;;;;25.83;9.07;;;9.50;64.50;;;;;;5055334;28;20202;-93
2022/03/28 04:01:08;;;;;;;22.40;8.70;;;9.50;64.70;;;;;;5052817;28;20208;-93
2022/03/28 04:03:35;;;;;;;22.23;8.03;;;9.40;64.90;;;;;;5052902;28;20200;-92
2022/03/28 04:06:03;;;;;;;21.63;8.07;;;9.40;65.10;;;;;;5052824;28;20250;-93
2022/03/28 04:08:30;;;;;;;19.63;7.93;;;9.40;65.00;;;;;;5052815;28;20243;-92
2022/03/28 04:10:57;;;;;;;22.50;7.17;;;9.40;64.80;;;;;;5050751;28;20204;-93
2022/03/28 04:13:26;;;;;;;27.43;8.50;;;9.40;64.70;;;;;;5051026;28;20621;-93
2022/03/28 04:15:53;;;;;;;17.90;6.80;;;9.30;65.10;;;;;;5053494;28;20229;-93
2022/03/28 04:18:25;;;;;;;19.47;6.90;;;9.30;64.30;;;;;;5054474;28;20290;-94
2022/03/28 04:20:52;;;;;;;18.63;6.63;;;9.30;64.30;;;;;;5058180;28;20192;-93
2022/03/28 04:23:19;;;;;;;20.63;7.03;;;9.30;64.70;;;;;;5052743;28;20204;-94
2022/03/28 04:25:46;;;;;;;26.83;9.50;;;9.20;64.40;;;;;;5052661;28;20200;-94
2022/03/28 04:28:15;;;;;;;17.57;7.40;;;9.20;64.20;;;;;;5054412;28;20200;-96
2022/03/28 04:30:44;;;;;;;16.07;6.70;;;9.20;64.70;;;;;;5064643;28;20220;-95
2022/03/28 04:33:11;;;;;;;23.23;8.57;;;9.20;65.60;;;;;;5055436;28;20256;-92
2022/03/28 04:35:41;;;;;;;21.30;7.70;;;9.20;64.90;;;;;;5047628;28;20737;-94
2022/03/28 04:38:09;;;;;;;14.77;6.37;;;9.20;65.20;;;;;;5050814;28;20313;-92
2022/03/28 04:40:37;;;;;;;21.17;8.40;;;9.10;65.10;;;;;;5051501;28;20287;-94
2022/03/28 04:43:06;;;;;;;16.13;7.30;;;9.10;65.20;;;;;;5050854;28;20216;-93
2022/03/28 04:45:35;;;;;;;17.33;7.60;;;9.10;65.30;;;;;;5036820;28;20297;-93
2022/03/28 04:48:08;;;;;;;19.37;6.87;;;9.10;65.30;;;;;;5047382;28;20255;-93
2022/03/28 04:50:35;;;;;;;19.67;7.90;;;9.00;65.00;;;;;;5046837;28;20266;-92
2022/03/28 04:53:03;;;;;;;19.17;7.23;;;9.00;64.90;;;;;;5049470;28;20717;-93
2022/03/28 04:55:31;;;;;;;18.93;7.30;;;9.00;65.10;;;;;;5051384;28;20317;-94
2022/03/28 04:57:58;;;;;;;16.37;6.70;;;9.00;65.30;;;;;;5048872;28;20197;-93
2022/03/28 05:00:25;;;;;;;22.17;8.07;;;9.00;65.40;;;;;;5049312;28;20210;-92
2022/03/28 05:02:52;;;;;;;20.27;7.63;;;9.00;65.40;;;;;;5050489;28;20211;-93
2022/03/28 05:05:23;;;;;;;19.90;7.40;;;9.00;65.50;;;;;;5050528;28;20798;-93
2022/03/28 05:07:50;;;;;;;19.53;6.83;;;8.90;65.80;;;;;;5052339;28;20260;-93
2022/03/28 05:10:26;;;;;;;17.80;7.30;;;8.90;65.80;;;;;;5054018;28;20207;-93
2022/03/28 05:12:54;;;;;;;19.57;7.03;;;8.90;65.70;;;;;;5055732;28;20262;-94
2022/03/28 05:15:24;;;;;;;19.97;6.87;;;8.80;65.60;;;;;;5054548;28;20631;-94
2022/03/28 05:17:54;;;;;;;18.30;6.97;;;8.80;65.70;;;;;;5054013;28;20224;-94
2022/03/28 05:20:33;;;;;;;19.57;7.17;;;8.80;66.10;;;;;;5052875;28;20292;-93
2022/03/28 05:23:00;;;;;;;17.93;6.90;;;8.80;66.20;;;;;;5051500;28;20205;-93
2022/03/28 05:25:28;;;;;;;34.37;10.00;;;8.70;66.10;;;;;;5056845;28;20197;-92
2022/03/28 05:27:57;;;;;;;25.53;8.20;;;8.70;66.00;;;;;;5049904;28;20204;-93
2022/03/28 05:30:25;;;;;;;22.77;7.00;;;8.70;66.10;;;;;;5051110;28;20591;-93
2022/03/28 05:32:52;;;;;;;18.20;7.23;;;8.70;66.30;;;;;;5050814;28;20228;-94
2022/03/28 05:35:19;;;;;;;26.07;7.90;;;8.60;66.30;;;;;;5050733;28;20243;-94
2022/03/28 05:37:48;;;;;;;21.03;7.03;;;8.60;66.30;;;;;;5045055;28;20204;-93
2022/03/28 05:40:17;;;;;;;13.17;5.90;;;8.60;66.50;;;;;;5056063;28;20200;-95
2022/03/28 05:42:44;;;;;;;17.80;6.73;;;8.60;66.60;;;;;;5040275;28;20202;-94
2022/03/28 05:45:12;;;;;;;26.47;8.33;;;8.50;66.50;;;;;;5049348;28;20198;-93
2022/03/28 05:47:41;;;;;;;24.47;7.13;;;8.50;66.90;;;;;;5057190;28;20217;-93
2022/03/28 05:50:23;;;;;;;19.93;6.27;;;8.50;67.10;;;;;;5150407;27;20624;-95
2022/03/28 05:52:50;;;;;;;23.03;6.63;;;8.50;66.80;;;;;;5147086;27;20206;-93
2022/03/28 05:55:18;;;;;;;17.00;6.83;;;8.40;66.80;;;;;;5152009;27;20208;-96
2022/03/28 05:57:45;;;;;;;12.60;6.07;;;8.40;67.10;;;;;;5129404;28;20299;-96
2022/03/28 06:00:14;;;;;;;21.87;7.40;;;8.50;67.00;;;;;;5128530;27;20971;-96
2022/03/28 06:02:41;;;;;;;27.30;8.80;;;8.50;67.20;;;;;;5127865;27;20203;-96
2022/03/28 06:05:09;;;;;;;22.83;7.03;;;8.40;67.10;;;;;;5130735;28;20209;-96
2022/03/28 06:07:38;;;;;;;16.90;6.87;;;8.40;67.00;;;;;;5140479;27;20260;-91
2022/03/28 06:10:06;;;;;;;14.47;6.57;;;8.50;67.20;;;;;;5142610;27;20228;-93
2022/03/28 06:12:33;;;;;;;11.17;5.80;;;8.40;68.10;;;;;;5147859;27;20324;-93
2022/03/28 06:15:01;;;;;;;14.63;6.27;;;8.40;67.30;;;;;;5132531;27;20376;-92
2022/03/28 06:17:28;;;;;;;14.43;6.43;;;8.40;67.50;;;;;;5150840;27;20265;-90
2022/03/28 06:19:57;;;;;;;16.87;7.13;;;8.50;68.20;;;;;;5126293;27;20238;-91
2022/03/28 06:22:25;;;;;;;23.33;8.13;;;8.50;68.20;;;;;;5124588;27;20209;-92
2022/03/28 06:24:53;;;;;;;19.50;7.53;;;8.50;68.60;;;;;;5138872;27;20311;-94
2022/03/28 06:27:23;;;;;;;25.47;9.17;;;8.50;68.80;;;;;;5139618;27;20210;-92
2022/03/28 06:29:51;;;;;;;17.97;7.93;;;8.50;68.70;;;;;;5140213;27;20213;-95
2022/03/28 06:32:18;;;;;;;26.27;9.23;;;8.50;68.90;;;;;;5107377;28;20793;-92
2022/03/28 06:34:44;;;;;;;12.77;6.47;;;8.50;68.90;;;;;;5126813;28;20236;-94
2022/03/28 06:37:12;;;;;;;17.67;7.60;;;8.50;69.40;;;;;;5137319;27;20306;-91
2022/03/28 06:39:39;;;;;;;12.83;6.07;;;8.50;69.80;;;;;;5145976;27;20208;-91
2022/03/28 06:42:08;;;;;;;14.97;6.97;;;8.60;70.30;;;;;;5148755;27;20644;-91
2022/03/28 06:44:36;;;;;;;13.93;5.93;;;8.60;70.80;;;;;;5135739;27;20286;-92
2022/03/28 06:47:07;;;;;;;20.23;7.13;;;8.60;70.70;;;;;;5129234;27;20201;-95
2022/03/28 06:49:34;;;;;;;31.80;9.47;;;8.60;71.20;;;;;;5130394;27;20314;-91
2022/03/28 06:52:02;;;;;;;16.27;7.20;;;8.60;71.30;;;;;;5113312;28;20218;-94
2022/03/28 06:54:29;;;;;;;23.53;8.27;;;8.70;71.80;;;;;;5133396;27;20248;-89
2022/03/28 06:56:56;;;;;;;12.90;6.17;;;8.70;72.10;;;;;;5148872;27;20285;-90
2022/03/28 06:59:24;;;;;;;13.80;7.07;;;8.70;72.40;;;;;;5146532;27;20282;-90
2022/03/28 07:01:52;;;;;;;16.77;7.47;;;8.80;73.00;;;;;;5110422;27;20228;-90
2022/03/28 07:04:20;;;;;;;14.40;7.37;;;8.80;73.10;;;;;;5112661;28;20325;-90
2022/03/28 07:06:47;;;;;;;16.03;6.60;;;8.80;73.40;;;;;;5121860;27;20260;-90
2022/03/28 07:09:15;;;;;;;22.40;8.93;;;8.90;73.70;;;;;;5122451;27;20301;-92
2022/03/28 07:11:43;;;;;;;17.10;7.60;;;9.00;74.10;;;;;;5113191;28;20635;-92
2022/03/28 07:14:10;;;;;;;24.50;8.97;;;9.10;74.20;;;;;;5114096;27;20194;-90
2022/03/28 07:16:38;;;;;;;16.67;7.90;;;9.10;74.20;;;;;;5133644;27;20265;-90
2022/03/28 07:19:05;;;;;;;21.77;8.03;;;9.20;74.70;;;;;;5133129;27;20240;-92
2022/03/28 07:21:33;;;;;;;26.50;8.83;;;9.30;75.20;;;;;;5112375;28;20296;-91
2022/03/28 07:24:02;;;;;;;23.67;7.10;;;9.30;75.80;;;;;;5112079;28;20310;-89
2022/03/28 07:26:29;;;;;;;17.57;7.23;;;9.50;76.30;;;;;;5112357;28;20202;-91
2022/03/28 07:29:00;;;;;;;22.63;8.00;;;9.50;76.50;;;;;;5111732;28;20280;-92
2022/03/28 07:31:27;;;;;;;24.33;10.10;;;9.60;77.00;;;;;;5113066;27;20284;-90
2022/03/28 07:34:29;;;;;;;24.93;8.63;;;9.70;77.80;;;;;;5132949;27;20232;-92
2022/03/28 07:36:43;;;;;;;22.37;7.93;;;9.80;78.20;;;;;;5127416;27;20574;-92
2022/03/28 07:39:10;;;;;;;24.47;8.90;;;10.00;77.00;;;;;;5106161;28;20207;-91
2022/03/28 07:41:37;;;;;;;22.20;8.60;;;10.10;77.10;;;;;;5117273;27;20241;-90
2022/03/28 07:44:05;;;;;;;21.10;9.33;;;10.20;77.20;;;;;;5111759;28;20293;-91
2022/03/28 07:46:33;;;;;;;26.17;9.43;;;10.30;77.60;;;;;;5120528;27;20209;-90
2022/03/28 07:49:01;;;;;;;19.43;8.37;;;10.40;77.50;;;;;;5116223;27;20714;-90
2022/03/28 07:51:28;;;;;;;20.30;9.00;;;10.50;77.70;;;;;;5106879;27;20199;-90
2022/03/28 07:53:55;;;;;;;23.23;9.00;;;10.60;77.70;;;;;;5132138;27;20237;-91
2022/03/28 07:56:22;;;;;;;20.70;9.77;;;10.70;77.80;;;;;;5131075;27;20246;-90
2022/03/28 07:58:49;;;;;;;24.73;10.33;;;10.80;77.90;;;;;;5133491;27;20207;-90
2022/03/28 08:01:16;;;;;;;25.57;9.67;;;10.90;78.00;;;;;;5131897;27;20248;-89
2022/03/28 08:03:44;;;;;;;23.90;9.63;;;11.00;77.50;;;;;;5120868;27;20282;-91
2022/03/28 08:06:15;;;;;;;22.27;9.73;;;11.10;78.00;;;;;;5108542;28;20255;-89
2022/03/28 08:08:42;;;;;;;23.07;10.07;;;11.30;78.20;;;;;;5113987;27;20215;-88
2022/03/28 08:11:09;;;;;;;21.50;10.90;;;11.40;77.40;;;;;;5124497;27;20297;-88
2022/03/28 08:13:37;;;;;;;25.33;10.50;;;11.50;77.20;;;;;;5090693;28;20292;-89
2022/03/28 08:16:05;;;;;;;25.90;11.33;;;11.60;77.50;;;;;;5093135;28;20193;-88
2022/03/28 08:18:32;;;;;;;20.13;9.67;;;11.70;77.20;;;;;;5115371;27;20249;-90
2022/03/28 08:21:00;;;;;;;33.50;13.97;;;11.80;77.10;;;;;;5127387;27;20214;-91
2022/03/28 08:23:29;;;;;;;26.90;12.83;;;11.90;76.40;;;;;;5111360;27;20623;-90
2022/03/28 08:25:56;;;;;;;27.33;12.67;;;12.00;76.00;;;;;;5113735;27;20223;-91
2022/03/28 08:28:23;;;;;;;31.87;12.97;;;12.20;75.60;;;;;;5128471;27;20216;-92
2022/03/28 08:30:50;;;;;;;24.53;12.40;;;12.30;75.40;;;;;;5103531;27;20223;-93
2022/03/28 08:33:17;;;;;;;21.47;10.70;;;12.40;74.80;;;;;;5131939;27;20292;-90
2022/03/28 08:35:44;;;;;;;27.47;12.20;;;12.50;74.50;;;;;;5131802;27;20314;-90
2022/03/28 08:38:12;;;;;;;21.20;11.30;;;12.60;74.40;;;;;;5092035;28;20622;-94
2022/03/28 08:40:42;;;;;;;22.63;12.33;;;12.80;74.30;;;;;;5094741;28;20624;-93
2022/03/28 08:43:09;;;;;;;20.70;10.83;;;12.90;74.10;;;;;;5129812;27;20225;-90
2022/03/28 08:45:38;;;;;;;25.93;13.53;;;13.10;74.10;;;;;;5130282;27;20197;-92
2022/03/28 08:48:07;;;;;;;30.60;13.97;;;13.20;74.00;;;;;;5105385;27;20211;-89
2022/03/28 08:50:35;;;;;;;26.73;14.37;;;13.40;74.00;;;;;;5089728;28;20233;-89
2022/03/28 08:53:04;;;;;;;28.93;13.60;;;13.50;72.80;;;;;;5116507;27;20237;-91
2022/03/28 08:55:31;;;;;;;29.83;13.83;;;13.70;72.40;;;;;;5130762;27;20194;-90
2022/03/28 08:57:59;;;;;;;25.87;12.93;;;14.00;71.80;;;;;;5114654;27;20275;-90
2022/03/28 09:00:27;;;;;;;25.70;14.20;;;14.20;71.60;;;;;;5108620;28;20301;-89
2022/03/28 09:02:57;;;;;;;25.93;13.77;;;14.40;71.40;;;;;;5105656;27;20208;-89
2022/03/28 09:05:30;;;;;;;21.60;12.63;;;14.70;71.20;;;;;;5109310;28;20195;-89
2022/03/28 09:07:58;;;;;;;20.43;12.67;;;15.00;71.50;;;;;;5126284;27;20239;-90
2022/03/28 09:10:28;;;;;;;25.50;14.10;;;15.30;71.20;;;;;;5130123;27;20695;-89
2022/03/28 09:13:02;;;;;;;26.50;13.40;;;15.50;69.90;;;;;;5128997;27;20781;-89
2022/03/28 09:15:47;;;;;;;22.17;13.33;;;15.80;68.70;;;;;;5132114;27;20213;-91
2022/03/28 09:18:22;;;;;;;24.57;14.20;;;16.10;68.30;;;;;;5129709;27;20224;-90
2022/03/28 09:20:50;;;;;;;22.43;13.43;;;16.40;68.30;;;;;;5130559;27;20747;-90
2022/03/28 09:23:33;;;;;;;22.27;13.83;;;16.70;67.20;;;;;;5129071;27;20234;-89
2022/03/28 09:26:05;;;;;;;20.87;12.73;;;17.00;66.90;;;;;;5130977;27;20524;-90
2022/03/28 09:28:46;;;;;;;24.63;14.33;;;17.20;66.70;;;;;;5128906;27;20225;-91
2022/03/28 09:31:21;;;;;;;18.83;11.53;;;17.50;64.90;;;;;;5131113;27;20579;-91
2022/03/28 09:33:58;;;;;;;24.00;13.50;;;17.80;65.60;;;;;;5114314;27;20205;-89
2022/03/28 09:36:44;;;;;;;25.17;13.83;;;18.00;64.30;;;;;;5112306;27;20201;-89
2022/03/28 09:39:13;;;;;;;19.13;12.63;;;18.30;62.40;;;;;;5131231;27;20657;-89
2022/03/28 09:41:41;;;;;;;25.00;13.70;;;18.50;63.50;;;;;;5107346;28;20198;-88
2022/03/28 09:44:09;;;;;;;20.03;12.53;;;18.70;63.20;;;;;;5118020;27;20269;-89
2022/03/28 09:46:37;;;;;;;19.50;13.03;;;18.90;62.10;;;;;;5118639;27;20289;-90
2022/03/28 09:49:04;;;;;;;21.57;13.47;;;19.10;62.40;;;;;;5127414;27;20213;-91
2022/03/28 09:51:34;;;;;;;22.27;12.40;;;19.20;61.40;;;;;;5129406;28;20867;-89
2022/03/28 09:54:01;;;;;;;25.97;13.90;;;19.40;61.10;;;;;;5128959;27;20198;-90
2022/03/28 09:56:28;;;;;;;21.23;12.43;;;19.60;61.00;;;;;;5129842;27;20284;-90
2022/03/28 09:59:00;;;;;;;21.07;13.50;;;19.80;60.60;;;;;;5118117;27;20223;-91
2022/03/28 10:01:32;;;;;;;20.97;14.00;;;20.00;59.30;;;;;;5105489;28;20211;-88
2022/03/28 10:04:03;;;;;;;23.60;13.80;;;20.10;59.10;;;;;;5125307;28;20209;-89
2022/03/28 10:06:32;;;;;;;23.80;13.63;;;20.30;59.30;;;;;;5124485;27;20742;-89
2022/03/28 10:09:00;;;;;;;25.33;16.00;;;20.40;59.10;;;;;;5130818;27;20283;-89
2022/03/28 10:11:28;;;;;;;28.03;14.30;;;20.60;58.80;;;;;;5130182;27;20693;-90
2022/03/28 10:13:56;;;;;;;21.17;13.57;;;20.80;58.90;;;;;;5126541;28;20193;-90
2022/03/28 10:16:23;;;;;;;22.20;15.00;;;20.90;58.10;;;;;;5130811;28;20190;-90
2022/03/28 10:18:52;;;;;;;25.67;14.03;;;21.00;58.10;;;;;;5129313;27;20356;-89
2022/03/28 10:21:24;;;;;;;27.00;14.13;;;21.20;57.50;;;;;;5129755;28;20216;-89
2022/03/28 10:23:55;;;;;;;27.60;15.17;;;21.30;57.20;;;;;;5097889;27;20289;-88
2022/03/28 10:26:28;;;;;;;23.37;13.73;;;21.40;56.70;;;;;;5115666;28;20799;-89
2022/03/28 10:29:10;;;;;;;23.73;14.70;;;21.50;55.80;;;;;;5104778;28;20204;-88
2022/03/28 10:31:54;;;;;;;21.20;13.57;;;21.70;55.50;;;;;;5108618;28;20308;-89
2022/03/28 10:34:45;;;;;;;25.00;15.20;;;21.70;55.20;;;;;;5120867;27;20681;-90
2022/03/28 10:37:28;;;;;;;29.13;16.90;;;21.80;54.40;;;;;;5126357;27;20213;-87
2022/03/28 10:40:23;;;;;;;22.67;15.10;;;22.00;54.60;;;;;;5115010;27;20660;-88
2022/03/28 10:42:53;;;;;;;25.90;16.23;;;22.00;54.50;;;;;;5098480;28;20261;-89
2022/03/28 10:45:21;;;;;;;23.60;14.70;;;22.10;55.50;;;;;;5112378;28;20703;-91
2022/03/28 10:47:52;;;;;;;24.43;15.17;;;22.20;55.60;;;;;;5109437;28;20202;-88
2022/03/28 10:50:25;;;;;;;19.63;14.80;;;22.30;55.10;;;;;;5092370;28;20294;-89
2022/03/28 10:53:07;;;;;;;22.47;15.17;;;22.40;55.10;;;;;;5098813;28;20213;-90
2022/03/28 10:55:37;;;;;;;24.00;15.77;;;22.50;53.70;;;;;;5106138;28;20204;-88
2022/03/28 10:58:15;;;;;;;23.47;15.13;;;22.60;54.80;;;;;;5111619;28;20225;-90
2022/03/28 11:01:18;;;;;;;19.50;13.80;;;22.80;53.90;;;;;;5112682;28;20251;-89
2022/03/28 11:03:47;;;;;;;24.23;15.00;;;22.80;53.30;;;;;;5113596;27;20202;-89
2022/03/28 11:06:17;;;;;;;20.47;13.27;;;22.90;53.70;;;;;;5102101;28;20230;-91
2022/03/28 11:08:47;;;;;;;22.33;13.10;;;23.00;53.60;;;;;;5092982;28;20264;-91
2022/03/28 11:11:19;;;;;;;20.73;14.17;;;23.10;54.20;;;;;;5093734;28;20297;-93
2022/03/28 11:14:03;;;;;;;22.20;13.20;;;23.10;53.20;;;;;;5093225;28;20237;-92
2022/03/28 11:16:42;;;;;;;20.83;13.97;;;23.20;52.40;;;;;;5091037;28;20195;-91
2022/03/28 11:19:29;;;;;;;23.87;12.80;;;23.30;52.20;;;;;;5093764;28;20301;-94
2022/03/28 11:22:08;;;;;;;20.93;14.50;;;23.40;52.50;;;;;;5092210;28;20202;-94
2022/03/28 11:24:48;;;;;;;23.90;15.00;;;23.50;52.70;;;;;;5103111;28;20745;-94
2022/03/28 11:27:17;;;;;;;25.03;15.27;;;23.50;52.50;;;;;;5107609;28;20700;-89
2022/03/28 11:29:45;;;;;;;24.60;15.97;;;23.60;53.10;;;;;;5109059;28;20281;-90
2022/03/28 11:32:14;;;;;;;27.23;17.13;;;23.70;53.40;;;;;;5109691;28;20968;-89
2022/03/28 11:34:42;;;;;;;25.60;16.67;;;23.80;52.60;;;;;;5109419;28;20285;-89
2022/03/28 11:37:16;;;;;;;29.87;17.20;;;23.80;52.80;;;;;;5106978;28;20821;-90
2022/03/28 11:39:54;;;;;;;28.67;16.90;;;23.90;52.10;;;;;;5105104;28;20213;-89
2022/03/28 11:42:23;;;;;;;21.77;15.17;;;24.00;51.10;;;;;;5102869;28;20194;-90
2022/03/28 11:44:51;;;;;;;20.67;13.87;;;24.10;52.00;;;;;;5091151;28;20229;-87
2022/03/28 11:47:18;;;;;;;25.70;13.80;;;24.20;51.80;;;;;;5107330;28;20298;-92
2022/03/28 11:49:53;;;;;;;22.67;14.43;;;24.20;51.50;;;;;;5094794;28;20557;-89
2022/03/28 11:52:21;;;;;;;18.20;13.03;;;24.30;50.60;;;;;;5101502;28;20292;-89
2022/03/28 11:54:51;;;;;;;22.23;14.10;;;24.40;50.90;;;;;;5098151;28;20544;-94
2022/03/28 12:00:19;;;;;;;24.07;16.23;;;24.40;50.10;;;;;;5095948;28;20263;-88
2022/03/28 12:02:51;;;;;;;25.47;18.00;;;24.50;50.10;;;;;;5100854;28;20565;-89
2022/03/28 12:05:32;;;;;;;21.57;15.50;;;24.60;49.80;;;;;;5111093;28;20206;-86
2022/03/28 12:08:02;;;;;;;27.90;17.90;;;24.60;49.70;;;;;;5095958;28;20241;-87
2022/03/28 12:10:32;;;;;;;22.77;16.33;;;24.70;50.20;;;;;;5091567;28;20300;-86
2022/03/28 12:13:02;;;;;;;30.33;17.50;;;24.70;49.50;;;;;;5100662;28;20228;-89
2022/03/28 12:15:32;;;;;;;22.27;15.40;;;24.80;49.30;;;;;;5111107;28;20177;-90
2022/03/28 12:18:00;;;;;;;26.83;16.90;;;24.80;49.40;;;;;;5108679;28;20306;-89
2022/03/28 12:20:29;;;;;;;30.83;18.10;;;24.80;49.60;;;;;;5107909;28;20237;-90
2022/03/28 12:23:03;;;;;;;22.20;15.23;;;24.90;49.50;;;;;;5109728;28;20198;-90
2022/03/28 12:25:35;;;;;;;23.87;16.00;;;25.00;49.50;;;;;;5109955;28;20198;-89
2022/03/28 12:28:05;;;;;;;24.23;15.33;;;25.00;49.00;;;;;;5104354;28;20198;-90
2022/03/28 12:30:36;;;;;;;22.77;15.43;;;25.10;48.80;;;;;;5109074;28;20306;-89
2022/03/28 12:33:22;;;;;;;27.30;16.63;;;25.20;49.00;;;;;;5111071;28;20565;-89
2022/03/28 12:35:52;;;;;;;25.33;16.57;;;25.20;48.20;;;;;;5091240;28;20199;-88
2022/03/28 12:38:22;;;;;;;22.73;14.90;;;25.30;48.60;;;;;;5101818;28;20309;-88
2022/03/28 12:40:52;;;;;;;20.83;14.67;;;25.30;48.20;;;;;;5109234;28;20672;-87
2022/03/28 12:43:23;;;;;;;19.93;13.67;;;25.40;48.10;;;;;;5090577;28;20199;-88
2022/03/28 12:45:52;;;;;;;21.13;13.87;;;25.40;48.10;;;;;;5104783;28;20194;-89
2022/03/28 12:48:20;;;;;;;23.47;14.80;;;25.40;47.90;;;;;;5094329;28;20327;-90
2022/03/28 12:51:00;;;;;;;25.97;13.67;;;25.40;47.50;;;;;;5104480;28;20226;-89
2022/03/28 12:53:30;;;;;;;20.83;13.50;;;25.50;46.80;;;;;;5090154;28;20260;-88